createdAt,value
2023-05-19T00:02:01.121Z,51.15
2023-05-19T00:04:30.136Z,51.41
2023-05-19T00:07:01.347Z,51.60
2023-05-19T00:09:30.189Z,51.43
2023-05-19T00:11:59.213Z,51.60
2023-05-19T00:14:29.010Z,51.93
2023-05-19T00:16:59.176Z,52.40
2023-05-19T00:19:32.220Z,52.13
2023-05-19T00:22:00.525Z,51.69
2023-05-19T00:24:29.079Z,51.73
2023-05-19T00:26:57.208Z,51.69
2023-05-19T00:29:25.616Z,51.70
2023-05-19T00:31:53.921Z,51.66
2023-05-19T00:34:23.444Z,51.67
2023-05-19T00:36:51.828Z,51.67
2023-05-19T00:39:23.954Z,51.88
2023-05-19T00:41:52.129Z,51.81
2023-05-19T00:44:20.242Z,52.32
2023-05-19T00:46:48.437Z,51.95
2023-05-19T00:49:16.485Z,52.21
2023-05-19T00:51:46.446Z,52.68
2023-05-19T00:54:14.554Z,52.16
2023-05-19T00:56:42.906Z,52.03
2023-05-19T00:59:11.106Z,52.47
2023-05-19T01:01:39.946Z,52.92
2023-05-19T01:04:10.063Z,52.38
2023-05-19T01:06:38.640Z,52.45
2023-05-19T01:09:09.049Z,52.62
2023-05-19T01:11:37.219Z,52.51
2023-05-19T01:14:05.389Z,52.44
2023-05-19T01:16:41.455Z,52.82
2023-05-19T01:19:36.861Z,52.82
2023-05-19T01:22:23.863Z,52.63
2023-05-19T01:25:43.620Z,52.51
2023-05-19T01:28:43.996Z,53.05
2023-05-19T01:31:14.848Z,53.40
2023-05-19T01:33:46.631Z,53.33
2023-05-19T01:36:16.927Z,52.92
2023-05-19T01:38:46.532Z,53.41
2023-05-19T01:41:15.796Z,53.62
2023-05-19T01:43:44.110Z,54.00
2023-05-19T01:46:14.867Z,54.02
2023-05-19T01:48:45.642Z,54.38
2023-05-19T01:51:15.096Z,54.04
2023-05-19T01:53:44.205Z,54.51
2023-05-19T01:56:13.599Z,54.69
2023-05-19T01:58:46.920Z,55.29
2023-05-19T02:01:30.795Z,54.70
2023-05-19T02:04:14.153Z,55.49
2023-05-19T02:06:47.384Z,54.93
2023-05-19T02:09:24.391Z,55.31
2023-05-19T02:11:57.036Z,54.84
2023-05-19T02:14:31.663Z,54.87
2023-05-19T02:17:05.366Z,55.05
2023-05-19T02:19:36.655Z,54.45
2023-05-19T02:22:05.310Z,54.26
2023-05-19T02:24:33.628Z,54.75
2023-05-19T02:27:01.792Z,54.49
2023-05-19T02:29:30.002Z,54.76
2023-05-19T02:31:58.128Z,54.84
2023-05-19T02:34:28.073Z,54.86
2023-05-19T02:36:56.566Z,54.55
2023-05-19T02:39:24.640Z,55.01
2023-05-19T02:41:52.951Z,54.81
2023-05-19T02:44:21.185Z,55.37
2023-05-19T02:46:49.328Z,55.67
2023-05-19T02:49:17.588Z,56.00
2023-05-19T02:51:47.028Z,55.66
2023-05-19T02:54:15.137Z,55.73
2023-05-19T02:56:43.297Z,55.80
2023-05-19T02:59:11.398Z,55.82
2023-05-19T03:01:40.480Z,55.42
2023-05-19T03:04:09.058Z,55.86
2023-05-19T03:06:37.670Z,54.97
2023-05-19T03:09:07.354Z,55.16
2023-05-19T03:11:35.487Z,54.61
2023-05-19T03:14:03.604Z,55.00
2023-05-19T03:16:32.525Z,54.68
2023-05-19T03:19:01.883Z,55.02
2023-05-19T03:21:31.986Z,54.91
2023-05-19T03:24:00.257Z,55.19
2023-05-19T03:26:30.440Z,55.29
2023-05-19T03:28:58.620Z,54.97
2023-05-19T03:31:27.199Z,55.30
2023-05-19T03:33:57.796Z,55.24
2023-05-19T03:36:26.288Z,55.11
2023-05-19T03:38:54.688Z,55.28
2023-05-19T03:41:22.819Z,55.01
2023-05-19T03:43:52.225Z,54.86
2023-05-19T03:46:20.747Z,55.23
2023-05-19T03:48:58.023Z,55.48
2023-05-19T03:51:36.673Z,55.76
2023-05-19T03:54:17.963Z,56.55
2023-05-19T03:56:46.165Z,56.62
2023-05-19T03:59:16.223Z,56.62
2023-05-19T04:01:44.342Z,56.70
2023-05-19T04:04:12.455Z,56.54
2023-05-19T04:06:40.781Z,56.45
2023-05-19T04:09:14.413Z,56.52
2023-05-19T04:11:43.069Z,57.12
2023-05-19T04:14:11.465Z,57.02
2023-05-19T04:16:41.707Z,57.08
2023-05-19T04:19:10.212Z,56.77
2023-05-19T04:21:38.365Z,56.13
2023-05-19T04:24:32.535Z,57.22
2023-05-19T04:27:02.764Z,56.46
2023-05-19T04:29:32.853Z,57.22
2023-05-19T04:32:07.801Z,57.66
2023-05-19T04:34:40.318Z,57.00
2023-05-19T04:37:10.158Z,57.28
2023-05-19T04:39:41.354Z,57.73
2023-05-19T04:42:14.658Z,57.84
2023-05-19T04:44:42.739Z,57.64
2023-05-19T04:47:12.517Z,57.23
2023-05-19T04:49:40.714Z,57.65
2023-05-19T04:52:16.057Z,57.74
2023-05-19T04:54:44.297Z,57.34
2023-05-19T04:57:15.021Z,57.71
2023-05-19T04:59:43.330Z,56.83
2023-05-19T05:02:13.208Z,56.46
2023-05-19T05:04:44.119Z,56.87
2023-05-19T05:07:15.463Z,57.55
2023-05-19T05:09:44.217Z,57.32
2023-05-19T05:12:38.922Z,56.51
2023-05-19T05:15:09.141Z,56.47
2023-05-19T05:17:40.172Z,56.29
2023-05-19T05:20:10.143Z,56.69
2023-05-19T05:22:39.600Z,56.16
2023-05-19T05:25:11.416Z,56.84
2023-05-19T05:27:39.651Z,56.85
2023-05-19T05:30:10.476Z,56.07
2023-05-19T05:32:40.866Z,56.76
2023-05-19T05:35:16.393Z,56.40
2023-05-19T05:37:44.734Z,56.37
2023-05-19T05:40:14.299Z,56.46
2023-05-19T05:42:44.290Z,56.33
2023-05-19T05:45:12.921Z,56.60
2023-05-19T05:47:44.191Z,56.50
2023-05-19T05:50:14.531Z,56.30
2023-05-19T05:52:46.659Z,56.62
2023-05-19T05:55:18.361Z,55.69
2023-05-19T05:57:48.759Z,56.15
2023-05-19T06:00:18.298Z,55.88
2023-05-19T06:02:54.831Z,56.33
2023-05-19T06:05:23.223Z,55.86
2023-05-19T06:07:51.490Z,55.91
2023-05-19T06:10:24.297Z,55.99
2023-05-19T06:12:52.683Z,56.78
2023-05-19T06:15:22.823Z,57.05
2023-05-19T06:18:12.819Z,56.36
2023-05-19T06:20:41.415Z,56.90
2023-05-19T06:23:09.733Z,56.57
2023-05-19T06:25:37.942Z,56.08
2023-05-19T06:28:06.972Z,56.29
2023-05-19T06:30:36.715Z,57.02
2023-05-19T06:33:23.054Z,57.65
2023-05-19T06:35:51.291Z,57.12
2023-05-19T06:38:19.536Z,57.40
2023-05-19T06:40:47.902Z,57.63
2023-05-19T06:43:16.085Z,56.76
2023-05-19T06:45:56.097Z,57.31
2023-05-19T06:48:27.658Z,57.21
2023-05-19T06:50:56.065Z,57.32
2023-05-19T06:53:25.694Z,56.71
2023-05-19T06:55:59.815Z,56.73
2023-05-19T06:58:35.055Z,57.33
2023-05-19T07:01:06.275Z,55.84
2023-05-19T07:03:41.916Z,55.69
2023-05-19T07:06:11.622Z,57.45
2023-05-19T07:08:39.870Z,56.54
2023-05-19T07:11:09.536Z,56.56
2023-05-19T07:13:37.666Z,56.28
2023-05-19T07:16:06.602Z,55.57
2023-05-19T07:18:35.490Z,55.72
2023-05-19T07:21:05.577Z,55.69
2023-05-19T07:23:33.757Z,55.44
2023-05-19T07:26:02.073Z,55.68
2023-05-19T07:28:30.194Z,55.37
2023-05-19T07:30:58.379Z,55.35
2023-05-19T07:33:27.014Z,55.48
2023-05-19T07:35:55.172Z,55.21
2023-05-19T07:38:24.611Z,55.50
2023-05-19T07:40:52.776Z,55.50
2023-05-19T07:43:21.034Z,55.57
2023-05-19T07:45:49.220Z,55.41
2023-05-19T07:48:18.739Z,56.11
2023-05-19T07:50:47.258Z,56.13
2023-05-19T07:53:15.521Z,55.78
2023-05-19T07:55:45.283Z,55.55
2023-05-19T07:58:13.433Z,55.42
2023-05-19T08:00:43.094Z,54.34
2023-05-19T08:03:11.593Z,54.90
2023-05-19T08:05:40.630Z,54.63
2023-05-19T08:08:09.557Z,54.63
2023-05-19T08:10:38.021Z,53.98
2023-05-19T08:13:07.463Z,53.43
2023-05-19T08:15:35.814Z,56.01
2023-05-19T08:18:05.369Z,54.48
2023-05-19T08:20:34.129Z,54.34
2023-05-19T08:23:02.776Z,55.19
2023-05-19T08:25:31.270Z,54.22
2023-05-19T08:27:59.457Z,54.30
2023-05-19T08:30:29.042Z,54.32
2023-05-19T08:32:57.204Z,54.33
2023-05-19T08:35:25.899Z,53.67
2023-05-19T08:37:54.057Z,53.73
2023-05-19T08:40:22.625Z,54.27
2023-05-19T08:42:51.347Z,54.02
2023-05-19T08:45:19.535Z,54.10
2023-05-19T08:47:50.002Z,53.40
2023-05-19T08:50:24.868Z,53.22
2023-05-19T08:52:57.745Z,53.26
2023-05-19T08:55:35.190Z,53.40
2023-05-19T08:58:06.017Z,53.31
2023-05-19T09:00:34.810Z,53.28
2023-05-19T09:03:17.422Z,53.85
2023-05-19T09:05:47.388Z,54.58
2023-05-19T09:08:16.113Z,53.03
2023-05-19T09:10:44.304Z,53.85
2023-05-19T09:13:12.607Z,54.19
2023-05-19T09:15:41.363Z,53.61
2023-05-19T09:18:13.020Z,53.29
2023-05-19T09:20:43.807Z,53.67
2023-05-19T09:23:14.941Z,53.28
2023-05-19T09:25:51.089Z,53.30
2023-05-19T09:28:27.336Z,53.19
2023-05-19T09:31:03.131Z,53.64
2023-05-19T09:33:35.350Z,54.17
2023-05-19T09:36:06.039Z,53.10
2023-05-19T09:38:34.423Z,53.02
2023-05-19T09:41:02.991Z,53.97
2023-05-19T09:43:33.473Z,53.97
2023-05-19T09:46:06.831Z,53.52
2023-05-19T09:48:37.302Z,52.90
2023-05-19T09:51:07.853Z,53.50
2023-05-19T09:53:38.933Z,53.64
2023-05-19T09:56:09.779Z,54.07
2023-05-19T09:58:39.097Z,54.40
2023-05-19T10:01:08.020Z,53.81
2023-05-19T10:03:38.932Z,53.88
2023-05-19T10:06:09.150Z,53.81
2023-05-19T10:08:38.740Z,53.89
2023-05-19T10:11:07.664Z,53.54
2023-05-19T10:13:38.496Z,53.41
2023-05-19T10:16:07.979Z,53.28
2023-05-19T10:18:40.110Z,52.36
2023-05-19T10:21:09.797Z,52.94
2023-05-19T10:23:38.087Z,53.67
2023-05-19T10:26:07.894Z,53.83
2023-05-19T10:28:40.580Z,53.01
2023-05-19T10:31:12.690Z,52.80
2023-05-19T10:34:14.710Z,53.32
2023-05-19T10:36:48.657Z,53.25
2023-05-19T10:39:23.054Z,52.60
2023-05-19T10:42:05.759Z,52.69
2023-05-19T10:45:03.639Z,52.64
2023-05-19T10:47:32.640Z,52.70
2023-05-19T10:50:06.813Z,52.55
2023-05-19T10:52:39.174Z,52.18
2023-05-19T10:55:10.292Z,52.84
2023-05-19T10:57:38.544Z,52.52
2023-05-19T11:00:31.447Z,52.72
2023-05-19T11:03:15.038Z,52.83
2023-05-19T11:05:45.699Z,52.58
2023-05-19T11:08:15.870Z,52.52
2023-05-19T11:10:46.610Z,52.28
2023-05-19T11:13:23.021Z,52.63
2023-05-19T11:15:52.827Z,52.44
2023-05-19T11:18:21.638Z,52.56
2023-05-19T11:21:02.744Z,52.96
2023-05-19T11:23:39.212Z,52.96
2023-05-19T11:26:42.979Z,52.29
2023-05-19T11:29:15.655Z,52.08
2023-05-19T11:31:45.309Z,52.46
2023-05-19T11:34:17.407Z,52.55
2023-05-19T11:36:48.230Z,52.30
2023-05-19T11:39:17.711Z,52.46
2023-05-19T11:41:46.136Z,51.75
2023-05-19T11:44:14.425Z,51.77
2023-05-19T11:46:42.611Z,52.33
2023-05-19T11:49:11.118Z,52.42
2023-05-19T11:51:39.884Z,51.90
2023-05-19T11:54:09.522Z,52.53
2023-05-19T11:56:41.711Z,53.10
2023-05-19T11:59:10.490Z,52.96
2023-05-19T12:01:38.634Z,52.72
2023-05-19T12:04:10.258Z,51.77
2023-05-19T12:06:38.473Z,52.08
2023-05-19T12:09:06.855Z,52.87
2023-05-19T12:11:36.432Z,51.91
2023-05-19T12:14:04.707Z,52.52
2023-05-19T12:16:36.213Z,52.35
2023-05-19T12:19:07.210Z,51.79
2023-05-19T12:21:36.218Z,52.00
2023-05-19T12:24:06.043Z,52.30
2023-05-19T12:26:36.494Z,51.96
2023-05-19T12:29:07.694Z,51.74
2023-05-19T12:31:36.378Z,51.75
2023-05-19T12:34:04.620Z,51.83
2023-05-19T12:36:33.805Z,51.29
2023-05-19T12:39:02.145Z,51.34
2023-05-19T12:41:30.740Z,51.93
2023-05-19T12:44:03.814Z,51.97
2023-05-19T12:46:34.234Z,52.30
2023-05-19T12:49:02.561Z,52.10
2023-05-19T12:51:54.654Z,51.32
2023-05-19T12:54:23.162Z,52.04
2023-05-19T12:56:52.477Z,52.24
2023-05-19T12:59:37.975Z,51.04
2023-05-19T13:02:07.970Z,51.77
2023-05-19T13:04:36.355Z,51.35
2023-05-19T13:07:04.910Z,52.42
2023-05-19T13:09:35.228Z,51.63
2023-05-19T13:12:04.742Z,51.83
2023-05-19T13:14:34.288Z,52.28
2023-05-19T13:17:03.273Z,52.72
2023-05-19T13:19:31.443Z,53.18
2023-05-19T13:21:59.931Z,53.77
2023-05-19T13:24:28.095Z,53.77
2023-05-19T13:26:56.338Z,53.81
2023-05-19T13:29:24.681Z,53.86
2023-05-19T13:31:54.500Z,53.39
2023-05-19T13:34:23.239Z,53.24
2023-05-19T13:36:51.462Z,53.68
2023-05-19T13:39:19.866Z,53.45
2023-05-19T13:41:47.995Z,53.91
2023-05-19T13:44:16.676Z,53.97
2023-05-19T13:46:46.515Z,53.58
2023-05-19T13:49:17.592Z,53.72
2023-05-19T13:51:45.755Z,53.55
2023-05-19T13:54:19.369Z,53.49
2023-05-19T13:56:48.709Z,53.05
2023-05-19T13:59:17.732Z,52.98
2023-05-19T14:01:46.506Z,53.32
2023-05-19T14:04:15.288Z,53.40
2023-05-19T14:06:44.974Z,52.86
2023-05-19T14:09:13.759Z,52.92
2023-05-19T14:11:41.892Z,52.97
2023-05-19T14:14:11.455Z,53.39
2023-05-19T14:16:40.067Z,53.51
2023-05-19T14:19:08.552Z,53.19
2023-05-19T14:21:38.053Z,53.50
2023-05-19T14:24:08.097Z,53.87
2023-05-19T14:26:36.560Z,53.88
2023-05-19T14:29:04.954Z,54.46
2023-05-19T14:31:34.262Z,54.27
2023-05-19T14:34:02.503Z,54.47
2023-05-19T14:36:31.162Z,54.46
2023-05-19T14:38:59.253Z,53.82
2023-05-19T14:41:28.974Z,53.62
2023-05-19T14:43:57.085Z,54.13
2023-05-19T14:46:25.232Z,53.37
2023-05-19T14:48:53.347Z,53.50
2023-05-19T14:51:21.731Z,53.71
2023-05-19T14:53:50.354Z,54.05
2023-05-19T14:56:18.530Z,53.84
2023-05-19T14:58:48.001Z,53.45
2023-05-19T15:01:16.295Z,53.49
2023-05-19T15:03:44.507Z,53.48
2023-05-19T15:06:12.635Z,53.87
2023-05-19T15:08:41.115Z,53.43
2023-05-19T15:11:09.297Z,53.78
2023-05-19T15:13:37.383Z,52.70
2023-05-19T15:16:17.295Z,53.15
2023-05-19T15:18:46.097Z,52.93
2023-05-19T15:21:14.386Z,53.67
2023-05-19T15:23:42.544Z,53.56
2023-05-19T15:26:10.873Z,53.00
2023-05-19T15:28:39.117Z,53.33
2023-05-19T15:31:09.303Z,53.28
2023-05-19T15:33:37.720Z,52.81
2023-05-19T15:36:07.073Z,52.88
2023-05-19T15:38:37.120Z,51.91
2023-05-19T15:41:08.852Z,52.60
2023-05-19T15:43:37.119Z,53.19
2023-05-19T15:46:05.945Z,53.33
2023-05-19T15:48:35.605Z,53.98
2023-05-19T15:51:03.837Z,52.81
2023-05-19T15:53:32.021Z,53.45
2023-05-19T15:56:01.432Z,53.17
2023-05-19T15:58:32.620Z,53.43
2023-05-19T16:01:05.285Z,53.89
2023-05-19T16:03:35.099Z,53.55
2023-05-19T16:06:03.579Z,53.06
2023-05-19T16:08:31.864Z,52.80
2023-05-19T16:11:01.763Z,52.69
2023-05-19T16:13:34.181Z,52.52
2023-05-19T16:16:02.955Z,53.00
2023-05-19T16:18:31.115Z,52.57
2023-05-19T16:21:00.573Z,52.44
2023-05-19T16:23:28.764Z,52.70
2023-05-19T16:25:57.509Z,52.54
2023-05-19T16:28:26.019Z,52.77
2023-05-19T16:30:57.648Z,52.59
2023-05-19T16:33:25.987Z,52.60
2023-05-19T16:35:54.185Z,52.80
2023-05-19T16:38:23.780Z,52.59
2023-05-19T16:40:52.011Z,52.16
2023-05-19T16:43:20.137Z,52.47
2023-05-19T16:45:49.121Z,52.17
2023-05-19T16:48:17.275Z,52.21
2023-05-19T16:50:45.444Z,52.51
2023-05-19T16:53:13.597Z,52.05
2023-05-19T16:55:43.082Z,52.21
2023-05-19T16:58:12.053Z,52.21
2023-05-19T17:00:40.304Z,52.40
2023-05-19T17:03:08.778Z,52.71
2023-05-19T17:05:38.980Z,52.89
2023-05-19T17:08:07.198Z,53.00
2023-05-19T17:10:36.034Z,53.15
2023-05-19T17:13:05.760Z,52.93
2023-05-19T17:15:35.272Z,53.02
2023-05-19T17:18:03.652Z,52.84
2023-05-19T17:20:32.261Z,52.75
2023-05-19T17:23:00.707Z,53.23
2023-05-19T17:25:30.688Z,53.60
2023-05-19T17:27:58.757Z,53.30
2023-05-19T17:30:28.335Z,53.75
2023-05-19T17:32:58.956Z,53.29
2023-05-19T17:35:28.552Z,52.85
2023-05-19T17:37:57.912Z,53.39
2023-05-19T17:40:26.194Z,53.46
2023-05-19T17:42:54.320Z,53.39
2023-05-19T17:45:23.259Z,53.21
2023-05-19T17:47:52.733Z,53.53
2023-05-19T17:50:20.847Z,53.26
2023-05-19T17:52:49.808Z,54.06
2023-05-19T17:55:19.081Z,54.35
2023-05-19T17:57:48.363Z,54.00
2023-05-19T18:00:17.453Z,53.81
2023-05-19T18:02:46.725Z,54.02
2023-05-19T18:05:18.463Z,54.70
2023-05-19T18:07:47.047Z,55.45
2023-05-19T18:10:17.272Z,55.64
2023-05-19T18:12:45.949Z,55.98
2023-05-19T18:15:16.988Z,55.50
2023-05-19T18:17:45.136Z,55.93
2023-05-19T18:20:14.407Z,56.14
2023-05-19T18:22:43.996Z,56.97
2023-05-19T18:25:12.112Z,57.45
2023-05-19T18:27:42.548Z,57.37
2023-05-19T18:30:11.463Z,57.64
2023-05-19T18:32:39.887Z,57.73
2023-05-19T18:35:09.496Z,57.95
2023-05-19T18:37:37.814Z,57.93
2023-05-19T18:40:09.491Z,58.07
2023-05-19T18:42:37.800Z,58.23
2023-05-19T18:45:07.502Z,58.64
2023-05-19T18:47:35.702Z,58.95
2023-05-19T18:50:04.307Z,58.86
2023-05-19T18:52:32.463Z,59.03
2023-05-19T18:55:01.581Z,59.09
2023-05-19T18:57:31.041Z,58.58
2023-05-19T18:59:59.316Z,58.86
2023-05-19T19:02:28.315Z,58.96
2023-05-19T19:04:56.879Z,59.06
2023-05-19T19:07:26.722Z,59.04
2023-05-19T19:09:54.918Z,59.35
2023-05-19T19:12:23.148Z,59.51
2023-05-19T19:14:52.616Z,59.55
2023-05-19T19:17:21.040Z,59.63
2023-05-19T19:19:49.694Z,59.53
2023-05-19T19:22:17.976Z,59.64
2023-05-19T19:24:46.362Z,59.68
2023-05-19T19:27:16.342Z,59.69
2023-05-19T19:29:44.705Z,59.59
2023-05-19T19:32:14.220Z,60.02
2023-05-19T19:34:42.367Z,59.81
2023-05-19T19:37:11.084Z,60.01
2023-05-19T19:39:39.459Z,60.47
2023-05-19T19:42:07.667Z,60.72
2023-05-19T19:44:35.867Z,60.82
2023-05-19T19:47:06.150Z,61.12
2023-05-19T19:49:36.107Z,61.32
2023-05-19T19:52:04.607Z,61.62
2023-05-19T19:54:33.138Z,61.12
2023-05-19T19:57:01.656Z,61.46
2023-05-19T19:59:30.590Z,61.82
2023-05-19T20:01:58.873Z,61.82
2023-05-19T20:04:33.391Z,62.10
2023-05-19T20:07:03.141Z,61.76
2023-05-19T20:09:31.315Z,61.63
2023-05-19T20:11:59.466Z,61.75
2023-05-19T20:14:27.658Z,61.83
2023-05-19T20:16:55.863Z,62.07
2023-05-19T20:19:29.097Z,61.72
2023-05-19T20:21:57.340Z,62.10
2023-05-19T20:24:26.910Z,62.14
2023-05-19T20:26:55.094Z,62.31
2023-05-19T20:29:23.879Z,62.32
2023-05-19T20:31:52.055Z,62.02
2023-05-19T20:34:20.235Z,62.15
2023-05-19T20:36:48.468Z,62.20
2023-05-19T20:39:16.605Z,62.57
2023-05-19T20:41:46.242Z,62.06
2023-05-19T20:44:15.256Z,62.09
2023-05-19T20:46:43.461Z,62.22
2023-05-19T20:49:11.627Z,61.78
2023-05-19T20:51:39.767Z,61.97
2023-05-19T20:54:08.096Z,62.15
2023-05-19T20:56:36.357Z,62.41
2023-05-19T20:59:05.965Z,62.72
2023-05-19T21:01:34.158Z,63.30
2023-05-19T21:04:06.671Z,63.03
2023-05-19T21:06:35.478Z,63.18
2023-05-19T21:09:06.537Z,63.15
2023-05-19T21:11:34.844Z,63.17
2023-05-19T21:14:04.912Z,62.88
2023-05-19T21:16:34.006Z,63.25
2023-05-19T21:19:02.762Z,63.48
2023-05-19T21:21:31.666Z,63.15
2023-05-19T21:24:00.426Z,63.08
2023-05-19T21:26:28.515Z,63.11
2023-05-19T21:28:56.935Z,63.37
2023-05-19T21:31:27.822Z,63.28
2023-05-19T21:33:55.954Z,63.34
2023-05-19T21:36:24.069Z,63.74
2023-05-19T21:38:52.236Z,63.25
2023-05-19T21:41:21.263Z,63.10
2023-05-19T21:43:49.482Z,63.33
2023-05-19T21:46:20.306Z,63.33
2023-05-19T21:48:49.803Z,63.26
2023-05-19T21:51:17.828Z,63.45
2023-05-19T21:53:46.150Z,63.57
2023-05-19T21:56:14.537Z,64.12
2023-05-19T21:58:42.663Z,64.04
2023-05-19T22:01:10.934Z,64.18
2023-05-19T22:03:39.172Z,63.85
2023-05-19T22:06:09.322Z,64.26
2023-05-19T22:08:37.974Z,64.24
2023-05-19T22:11:06.721Z,64.01
2023-05-19T22:13:37.389Z,64.21
2023-05-19T22:16:06.170Z,63.80
2023-05-19T22:18:34.415Z,64.07
2023-05-19T22:21:02.610Z,64.17
2023-05-19T22:23:32.223Z,64.42
2023-05-19T22:26:00.850Z,64.30
2023-05-19T22:28:28.985Z,64.07
2023-05-19T22:30:57.217Z,63.96
2023-05-19T22:33:25.322Z,63.54
2023-05-19T22:35:53.548Z,63.69
2023-05-19T22:38:21.746Z,63.55
2023-05-19T22:40:51.254Z,63.71
2023-05-19T22:43:19.424Z,63.65
2023-05-19T22:45:47.630Z,63.33
2023-05-19T22:48:16.312Z,63.23
2023-05-19T22:50:44.501Z,63.26
2023-05-19T22:53:12.586Z,63.70
2023-05-19T22:55:40.846Z,63.66
2023-05-19T22:58:10.307Z,64.16
2023-05-19T23:00:38.395Z,64.13
2023-05-19T23:03:06.550Z,64.12
2023-05-19T23:05:35.369Z,64.31
2023-05-19T23:08:03.791Z,64.22
2023-05-19T23:10:31.946Z,64.20
2023-05-19T23:13:00.072Z,64.39
2023-05-19T23:15:29.663Z,64.33
2023-05-19T23:17:57.844Z,64.22
2023-05-19T23:20:25.989Z,63.96
2023-05-19T23:22:54.135Z,64.39
2023-05-19T23:25:22.287Z,64.10
2023-05-19T23:27:50.376Z,63.91
2023-05-19T23:30:18.731Z,64.25
2023-05-19T23:32:48.293Z,64.14
2023-05-19T23:35:18.204Z,64.14
2023-05-19T23:37:46.297Z,63.35
2023-05-19T23:40:15.010Z,62.86
2023-05-19T23:42:44.558Z,62.54
2023-05-19T23:45:13.099Z,62.42
2023-05-19T23:47:41.358Z,62.28
2023-05-19T23:50:11.721Z,61.27
2023-05-19T23:52:39.880Z,61.28
2023-05-19T23:55:09.859Z,61.27
2023-05-19T23:57:38.135Z,61.16
